createdAt,value
2019-02-08T00:00:53.811Z,85.70
2019-02-08T00:03:23.091Z,85.60
2019-02-08T00:05:52.460Z,85.50
2019-02-08T00:08:22.115Z,85.50
2019-02-08T00:10:51.727Z,84.90
2019-02-08T00:13:21.031Z,84.00
2019-02-08T00:15:50.331Z,83.20
2019-02-08T00:18:19.619Z,83.20
2019-02-08T00:20:48.915Z,83.10
2019-02-08T00:23:26.240Z,82.90
2019-02-08T00:25:49.205Z,83.10
2019-02-08T00:28:18.510Z,83.20
2019-02-08T00:30:47.786Z,83.80
2019-02-08T00:33:17.079Z,84.00
2019-02-08T00:35:46.416Z,84.30
2019-02-08T00:38:15.716Z,84.30
2019-02-08T00:40:45.000Z,84.80
2019-02-08T00:43:14.300Z,85.10
2019-02-08T00:45:43.575Z,83.80
2019-02-08T00:48:12.971Z,83.30
2019-02-08T00:50:42.259Z,82.50
2019-02-08T00:53:11.626Z,83.10
2019-02-08T00:55:41.292Z,83.40
2019-02-08T00:58:10.663Z,83.20
2019-02-08T01:00:40.203Z,82.90
2019-02-08T01:03:09.567Z,83.20
2019-02-08T01:05:38.872Z,83.20
2019-02-08T01:08:08.167Z,83.70
2019-02-08T01:10:37.451Z,84.00
2019-02-08T01:13:06.751Z,84.60
2019-02-08T01:15:36.110Z,85.20
2019-02-08T01:18:05.671Z,85.50
2019-02-08T01:20:35.035Z,85.80
2019-02-08T01:23:04.872Z,85.80
2019-02-08T01:25:34.224Z,85.30
2019-02-08T01:28:03.530Z,84.50
2019-02-08T01:30:34.179Z,83.90
2019-02-08T01:33:03.800Z,83.70
2019-02-08T01:35:33.109Z,83.70
2019-02-08T01:38:03.092Z,83.60
2019-02-08T01:40:38.238Z,82.80
2019-02-08T01:43:08.355Z,82.30
2019-02-08T01:45:37.735Z,81.90
2019-02-08T01:48:08.078Z,81.50
2019-02-08T01:50:37.688Z,81.50
2019-02-08T01:53:07.111Z,80.80
2019-02-08T01:55:36.697Z,80.70
2019-02-08T01:58:06.224Z,80.40
2019-02-08T02:00:41.338Z,79.50
2019-02-08T02:03:10.903Z,79.10
2019-02-08T02:05:40.375Z,80.20
2019-02-08T02:08:09.775Z,80.10
2019-02-08T02:10:44.187Z,80.00
2019-02-08T02:13:13.550Z,80.80
2019-02-08T02:15:42.999Z,81.90
2019-02-08T02:18:13.436Z,82.40
2019-02-08T02:20:44.067Z,82.20
2019-02-08T02:23:15.423Z,82.40
2019-02-08T02:25:45.155Z,82.70
2019-02-08T02:28:14.525Z,82.10
2019-02-08T02:30:43.955Z,82.50
2019-02-08T02:33:13.986Z,82.30
2019-02-08T02:35:43.699Z,81.90
2019-02-08T02:38:12.971Z,81.10
2019-02-08T02:40:42.262Z,80.90
2019-02-08T02:43:12.110Z,80.90
2019-02-08T02:45:43.394Z,81.20
2019-02-08T02:48:13.221Z,82.00
2019-02-08T02:50:42.537Z,82.00
2019-02-08T02:53:11.868Z,81.90
2019-02-08T02:55:41.167Z,82.00
2019-02-08T02:58:10.919Z,81.70
2019-02-08T03:00:43.014Z,81.90
2019-02-08T03:03:12.727Z,81.20
2019-02-08T03:05:42.271Z,80.70
2019-02-08T03:08:13.828Z,80.50
2019-02-08T03:10:43.299Z,80.10
2019-02-08T03:13:13.730Z,80.20
2019-02-08T03:15:43.069Z,79.00
2019-02-08T03:18:12.744Z,79.60
2019-02-08T03:20:42.006Z,78.80
2019-02-08T03:23:11.707Z,78.80
2019-02-08T03:25:41.454Z,78.10
2019-02-08T03:28:10.722Z,78.70
2019-02-08T03:30:41.683Z,78.40
2019-02-08T03:33:11.016Z,78.00
2019-02-08T03:35:40.299Z,78.60
2019-02-08T03:38:09.923Z,79.50
2019-02-08T03:40:39.219Z,79.70
2019-02-08T03:43:08.763Z,80.10
2019-02-08T03:45:42.600Z,81.00
2019-02-08T03:48:12.322Z,81.00
2019-02-08T03:50:41.903Z,80.80
2019-02-08T03:53:11.257Z,80.60
2019-02-08T03:55:40.581Z,81.10
2019-02-08T03:58:10.233Z,81.30
2019-02-08T04:00:44.271Z,81.40
2019-02-08T04:03:13.750Z,81.20
2019-02-08T04:05:43.199Z,81.20
2019-02-08T04:08:12.490Z,80.40
2019-02-08T04:10:41.850Z,80.30
2019-02-08T04:13:11.218Z,81.00
2019-02-08T04:15:40.662Z,81.30
2019-02-08T04:18:10.325Z,81.00
2019-02-08T04:20:39.603Z,81.20
2019-02-08T04:23:08.900Z,81.20
2019-02-08T04:25:38.194Z,81.00
2019-02-08T04:28:07.767Z,80.80
2019-02-08T04:30:37.061Z,81.00
2019-02-08T04:33:06.506Z,81.20
2019-02-08T04:35:35.804Z,80.70
2019-02-08T04:38:05.458Z,80.00
2019-02-08T04:40:34.746Z,81.00
2019-02-08T04:43:04.109Z,80.70
2019-02-08T04:45:33.400Z,80.70
2019-02-08T04:48:02.687Z,80.90
2019-02-08T04:50:32.039Z,80.40
2019-02-08T04:53:01.331Z,80.70
2019-02-08T04:55:30.883Z,81.10
2019-02-08T04:58:00.504Z,81.00
2019-02-08T05:00:32.215Z,81.40
2019-02-08T05:03:01.891Z,80.40
2019-02-08T05:05:31.475Z,80.50
2019-02-08T05:08:00.763Z,80.80
2019-02-08T05:10:34.182Z,81.20
2019-02-08T05:13:03.746Z,80.30
2019-02-08T05:15:33.086Z,80.30
2019-02-08T05:18:02.384Z,80.50
2019-02-08T05:20:32.823Z,80.70
2019-02-08T05:23:02.412Z,80.60
2019-02-08T05:25:31.685Z,80.90
2019-02-08T05:28:00.970Z,81.30
2019-02-08T05:30:32.864Z,81.80
2019-02-08T05:33:02.375Z,81.80
2019-02-08T05:35:31.652Z,82.10
2019-02-08T05:38:01.308Z,82.30
2019-02-08T05:40:30.685Z,81.70
2019-02-08T05:43:00.194Z,82.00
2019-02-08T05:45:29.554Z,81.70
2019-02-08T05:47:58.829Z,81.30
2019-02-08T05:50:29.225Z,81.80
2019-02-08T05:52:58.732Z,81.70
2019-02-08T05:55:31.006Z,91.40
2019-02-08T05:58:00.919Z,93.70
2019-02-08T06:00:40.378Z,90.10
2019-02-08T06:03:09.690Z,68.10
2019-02-08T06:05:39.511Z,69.20
2019-02-08T06:08:09.457Z,72.90
2019-02-08T06:10:38.802Z,75.60
2019-02-08T06:13:08.926Z,77.80
2019-02-08T06:15:38.439Z,78.80
2019-02-08T06:18:09.162Z,79.10
2019-02-08T06:20:38.883Z,80.10
2019-02-08T06:23:08.227Z,80.70
2019-02-08T06:25:37.591Z,81.20
2019-02-08T06:28:07.083Z,81.70
2019-02-08T06:30:37.751Z,81.90
2019-02-08T06:33:07.270Z,82.30
2019-02-08T06:35:37.031Z,82.40
2019-02-08T06:38:06.836Z,82.20
2019-02-08T06:40:39.679Z,82.90
2019-02-08T06:43:09.419Z,83.50
2019-02-08T06:45:39.159Z,84.30
2019-02-08T06:48:10.397Z,83.70
2019-02-08T06:50:39.990Z,83.70
2019-02-08T06:53:09.343Z,83.40
2019-02-08T06:55:38.618Z,83.60
2019-02-08T06:58:22.842Z,83.70
2019-02-08T07:00:54.801Z,83.50
2019-02-08T07:03:28.175Z,83.80
2019-02-08T07:05:59.090Z,83.60
2019-02-08T07:08:33.216Z,83.80
2019-02-08T07:11:13.203Z,84.00
2019-02-08T07:13:53.269Z,84.30
2019-02-08T07:16:39.467Z,84.20
2019-02-08T07:19:22.622Z,83.90
2019-02-08T07:22:05.770Z,83.90
2019-02-08T07:24:51.702Z,84.20
2019-02-08T07:27:25.538Z,83.00
2019-02-08T07:29:59.427Z,83.00
2019-02-08T07:32:48.470Z,82.60
2019-02-08T07:35:28.555Z,82.10
2019-02-08T07:38:03.662Z,82.00
2019-02-08T07:40:43.154Z,81.70
2019-02-08T07:43:23.799Z,81.80
2019-02-08T07:45:59.710Z,81.60
2019-02-08T07:48:47.682Z,81.50
2019-02-08T07:51:18.923Z,81.60
2019-02-08T07:54:06.115Z,81.30
2019-02-08T07:56:53.131Z,81.20
2019-02-08T07:59:30.975Z,81.00
2019-02-08T08:02:02.070Z,80.60
2019-02-08T08:04:46.191Z,80.80
2019-02-08T08:07:23.098Z,80.80
2019-02-08T08:10:00.259Z,80.60
2019-02-08T08:12:43.333Z,80.80
2019-02-08T08:15:19.935Z,81.20
2019-02-08T08:18:00.017Z,80.80
2019-02-08T08:20:46.972Z,80.90
2019-02-08T08:23:24.963Z,80.70
2019-02-08T08:26:15.170Z,81.00
2019-02-08T08:29:02.422Z,81.20
2019-02-08T08:31:36.752Z,81.50
2019-02-08T08:34:27.359Z,82.00
2019-02-08T08:37:15.939Z,82.00
2019-02-08T08:40:21.518Z,81.80
2019-02-08T08:43:05.871Z,81.60
2019-02-08T08:45:57.897Z,81.60
2019-02-08T08:48:53.900Z,81.80
2019-02-08T08:51:32.235Z,81.50
2019-02-08T08:54:13.183Z,82.00
2019-02-08T08:57:15.466Z,82.00
2019-02-08T08:59:50.782Z,81.70
2019-02-08T09:02:26.163Z,81.30
2019-02-08T09:04:58.539Z,81.40
2019-02-08T09:07:49.387Z,82.00
2019-02-08T09:10:27.963Z,81.40
2019-02-08T09:13:14.967Z,81.20
2019-02-08T09:15:48.938Z,81.10
2019-02-08T09:18:27.274Z,80.10
2019-02-08T09:21:20.667Z,80.20
2019-02-08T09:24:10.679Z,79.10
2019-02-08T09:27:04.331Z,77.80
2019-02-08T09:30:08.358Z,78.50
2019-02-08T09:32:40.741Z,77.50
2019-02-08T09:35:31.275Z,77.50
2019-02-08T09:38:24.379Z,77.00
2019-02-08T09:41:31.794Z,76.60
2019-02-08T09:44:28.619Z,76.00
2019-02-08T09:47:12.622Z,76.10
2019-02-08T09:49:48.107Z,76.30
2019-02-08T09:52:44.646Z,76.20
2019-02-08T09:55:28.806Z,76.20
2019-02-08T09:58:19.200Z,76.50
2019-02-08T10:01:09.370Z,76.10
2019-02-08T10:03:49.982Z,75.80
2019-02-08T10:06:39.043Z,75.50
2019-02-08T10:09:20.595Z,75.30
2019-02-08T10:12:10.431Z,74.90
2019-02-08T10:15:02.714Z,74.30
2019-02-08T10:17:51.814Z,74.70
2019-02-08T10:20:54.087Z,74.00
2019-02-08T10:23:55.215Z,72.40
2019-02-08T10:27:02.778Z,72.50
2019-02-08T10:29:46.970Z,73.00
2019-02-08T10:32:52.490Z,73.40
2019-02-08T10:35:58.134Z,71.60
2019-02-08T10:38:48.723Z,71.90
2019-02-08T10:41:45.022Z,71.00
2019-02-08T10:44:38.635Z,71.10
2019-02-08T10:47:28.790Z,71.20
2019-02-08T10:50:20.762Z,71.00
2019-02-08T10:53:01.853Z,71.20
2019-02-08T10:55:56.391Z,70.90
2019-02-08T10:59:01.826Z,70.80
2019-02-08T11:01:54.120Z,71.60
2019-02-08T11:04:56.994Z,70.70
2019-02-08T11:08:04.834Z,69.30
2019-02-08T11:11:11.959Z,68.70
2019-02-08T11:13:58.700Z,67.30
2019-02-08T11:16:42.842Z,67.00
2019-02-08T11:19:17.915Z,67.20
2019-02-08T11:21:49.251Z,66.90
2019-02-08T11:24:20.991Z,67.10
2019-02-08T11:26:50.347Z,67.60
2019-02-08T11:29:19.647Z,67.30
2019-02-08T11:31:48.922Z,67.30
2019-02-08T11:34:18.211Z,67.20
2019-02-08T11:36:47.653Z,64.70
2019-02-08T11:39:17.792Z,65.10
2019-02-08T11:41:47.404Z,65.10
2019-02-08T11:44:16.923Z,64.60
2019-02-08T11:46:46.671Z,65.20
2019-02-08T11:49:15.942Z,65.00
2019-02-08T11:51:45.231Z,65.10
2019-02-08T11:54:14.592Z,65.20
2019-02-08T11:56:43.890Z,65.60
2019-02-08T11:59:13.211Z,65.50
2019-02-08T12:01:42.783Z,65.10
2019-02-08T12:04:12.446Z,63.80
2019-02-08T12:06:41.858Z,63.80
2019-02-08T12:09:12.887Z,63.30
2019-02-08T12:11:42.239Z,62.50
2019-02-08T12:14:11.529Z,63.10
2019-02-08T12:16:40.799Z,63.10
2019-02-08T12:19:10.157Z,62.40
2019-02-08T12:21:39.699Z,63.00
2019-02-08T12:24:09.226Z,62.70
2019-02-08T12:26:38.515Z,62.00
2019-02-08T12:29:08.127Z,60.90
2019-02-08T12:31:37.415Z,60.80
2019-02-08T12:34:06.758Z,61.20
2019-02-08T12:36:36.052Z,61.30
2019-02-08T12:39:08.530Z,61.10
2019-02-08T12:41:38.083Z,60.00
2019-02-08T12:44:09.694Z,60.10
2019-02-08T12:46:39.315Z,59.70
2019-02-08T12:49:08.607Z,59.60
2019-02-08T12:51:37.890Z,60.30
2019-02-08T12:54:07.266Z,60.90
2019-02-08T12:56:36.541Z,61.20
2019-02-08T12:59:06.118Z,61.70
2019-02-08T13:01:37.811Z,61.10
2019-02-08T13:04:06.402Z,60.60
2019-02-08T13:06:35.771Z,60.80
2019-02-08T13:09:08.348Z,60.10
2019-02-08T13:11:37.984Z,59.30
2019-02-08T13:14:07.311Z,59.90
2019-02-08T13:16:36.960Z,59.30
2019-02-08T13:19:06.386Z,59.50
2019-02-08T13:21:35.730Z,58.90
2019-02-08T13:24:05.680Z,58.20
2019-02-08T13:26:35.287Z,58.20
2019-02-08T13:29:05.606Z,58.10
2019-02-08T13:31:34.894Z,57.90
2019-02-08T13:34:04.643Z,57.30
2019-02-08T13:36:33.929Z,56.90
2019-02-08T13:39:05.359Z,56.70
2019-02-08T13:41:34.892Z,55.10
2019-02-08T13:44:04.174Z,55.20
2019-02-08T13:46:33.452Z,54.50
2019-02-08T13:49:02.743Z,54.00
2019-02-08T13:51:32.031Z,53.00
2019-02-08T13:54:01.302Z,53.00
2019-02-08T13:56:30.607Z,52.00
2019-02-08T13:59:00.195Z,53.30
2019-02-08T14:01:29.551Z,53.50
2019-02-08T14:03:58.823Z,53.40
2019-02-08T14:06:28.118Z,53.40
2019-02-08T14:08:57.391Z,53.10
2019-02-08T14:11:27.003Z,53.70
2019-02-08T14:13:56.270Z,54.40
2019-02-08T14:16:25.560Z,53.60
2019-02-08T14:18:54.833Z,53.70
2019-02-08T14:21:24.119Z,53.50
2019-02-08T14:23:53.394Z,53.70
2019-02-08T14:26:22.677Z,53.90
2019-02-08T14:28:51.946Z,53.30
2019-02-08T14:31:21.235Z,53.60
2019-02-08T14:33:50.516Z,53.70
2019-02-08T14:36:20.111Z,54.00
2019-02-08T14:38:49.394Z,54.20
2019-02-08T14:41:20.253Z,54.20
2019-02-08T14:43:49.732Z,54.60
2019-02-08T14:46:19.020Z,54.50
2019-02-08T14:48:48.304Z,54.80
2019-02-08T14:51:17.583Z,55.10
2019-02-08T14:53:46.875Z,55.10
2019-02-08T14:56:16.166Z,54.80
2019-02-08T14:58:45.434Z,54.90
2019-02-08T15:01:14.735Z,54.60
2019-02-08T15:03:44.011Z,54.60
2019-02-08T15:06:13.286Z,54.80
2019-02-08T15:08:42.562Z,54.80
2019-02-08T15:11:11.867Z,54.40
2019-02-08T15:13:41.138Z,53.60
2019-02-08T15:16:10.494Z,53.80
2019-02-08T15:18:39.779Z,53.10
2019-02-08T15:21:09.367Z,52.50
2019-02-08T15:23:38.666Z,53.00
2019-02-08T15:26:07.934Z,53.40
2019-02-08T15:28:37.226Z,52.70
2019-02-08T15:31:06.511Z,52.60
2019-02-08T15:33:35.786Z,52.80
2019-02-08T15:36:05.314Z,53.00
2019-02-08T15:38:34.879Z,53.10
2019-02-08T15:41:04.699Z,53.80
2019-02-08T15:43:33.967Z,54.00
2019-02-08T15:46:03.334Z,54.40
2019-02-08T15:48:32.750Z,54.40
2019-02-08T15:51:02.412Z,54.50
2019-02-08T15:53:31.706Z,53.60
2019-02-08T15:56:04.058Z,53.30
2019-02-08T15:58:34.015Z,53.60
2019-02-08T16:01:04.834Z,53.50
2019-02-08T16:03:34.451Z,53.90
2019-02-08T16:06:04.370Z,54.10
2019-02-08T16:08:33.667Z,54.30
2019-02-08T16:11:02.940Z,54.80
2019-02-08T16:13:32.222Z,55.10
2019-02-08T16:16:01.499Z,55.30
2019-02-08T16:18:30.794Z,54.90
2019-02-08T16:21:00.070Z,55.30
2019-02-08T16:23:29.363Z,55.40
2019-02-08T16:25:58.774Z,55.50
2019-02-08T16:28:28.070Z,55.90
2019-02-08T16:30:57.346Z,55.90
2019-02-08T16:33:26.634Z,56.00
2019-02-08T16:35:55.998Z,55.50
2019-02-08T16:38:25.267Z,55.40
2019-02-08T16:40:54.598Z,55.60
2019-02-08T16:43:23.907Z,55.60
2019-02-08T16:45:53.584Z,56.20
2019-02-08T16:48:23.119Z,55.70
2019-02-08T16:50:52.408Z,55.70
2019-02-08T16:53:21.686Z,56.00
2019-02-08T16:55:51.031Z,55.80
2019-02-08T16:58:20.310Z,56.20
2019-02-08T17:00:49.582Z,56.50
2019-02-08T17:03:18.871Z,56.60
2019-02-08T17:05:48.151Z,56.90
2019-02-08T17:08:17.438Z,56.90
2019-02-08T17:10:46.723Z,57.20
2019-02-08T17:13:15.994Z,57.50
2019-02-08T17:15:45.290Z,57.00
2019-02-08T17:18:14.896Z,56.30
2019-02-08T17:20:49.398Z,56.50
2019-02-08T17:23:18.688Z,56.60
2019-02-08T17:25:48.034Z,57.00
2019-02-08T17:28:17.319Z,57.40
2019-02-08T17:30:46.591Z,57.30
2019-02-08T17:33:15.881Z,57.70
2019-02-08T17:35:45.154Z,58.30
2019-02-08T17:38:14.446Z,58.60
2019-02-08T17:40:46.630Z,58.60
2019-02-08T17:43:16.007Z,58.80
2019-02-08T17:45:45.282Z,59.10
2019-02-08T17:48:16.115Z,59.60
2019-02-08T17:50:45.407Z,59.80
2019-02-08T17:53:14.679Z,59.60
2019-02-08T17:55:43.966Z,59.90
2019-02-08T17:58:13.234Z,60.00
2019-02-08T18:00:54.943Z,59.90
2019-02-08T18:03:24.270Z,60.10
2019-02-08T18:05:53.597Z,60.20
2019-02-08T18:08:23.139Z,60.10
2019-02-08T18:10:52.415Z,60.50
2019-02-08T18:13:21.691Z,60.20
2019-02-08T18:15:50.970Z,60.10
2019-02-08T18:18:20.365Z,60.30
2019-02-08T18:20:55.679Z,59.90
2019-02-08T18:23:24.978Z,59.80
2019-02-08T18:25:54.243Z,59.60
2019-02-08T18:28:23.536Z,59.70
2019-02-08T18:30:52.806Z,59.60
2019-02-08T18:33:22.098Z,59.70
2019-02-08T18:35:51.387Z,59.70
2019-02-08T18:38:20.663Z,59.60
2019-02-08T18:40:49.950Z,59.80
2019-02-08T18:43:19.226Z,59.80
2019-02-08T18:45:48.522Z,59.90
2019-02-08T18:48:18.087Z,59.60
2019-02-08T18:50:50.002Z,59.80
2019-02-08T18:53:19.358Z,59.80
2019-02-08T18:55:48.961Z,59.60
2019-02-08T18:58:19.420Z,59.90
2019-02-08T19:00:50.857Z,59.80
2019-02-08T19:03:20.675Z,59.60
2019-02-08T19:05:50.265Z,59.20
2019-02-08T19:08:19.604Z,59.00
2019-02-08T19:10:48.891Z,59.10
2019-02-08T19:13:18.467Z,59.60
2019-02-08T19:15:47.758Z,58.80
2019-02-08T19:18:17.033Z,59.10
2019-02-08T19:20:46.362Z,58.80
2019-02-08T19:23:15.640Z,58.80
2019-02-08T19:25:45.876Z,58.80
2019-02-08T19:28:15.429Z,58.60
2019-02-08T19:30:45.055Z,58.80
2019-02-08T19:33:14.345Z,58.80
2019-02-08T19:35:43.670Z,59.10
2019-02-08T19:38:12.959Z,59.00
2019-02-08T19:40:46.902Z,58.60
2019-02-08T19:43:16.212Z,58.60
2019-02-08T19:45:45.538Z,58.40
2019-02-08T19:48:14.817Z,58.10
2019-02-08T19:50:46.540Z,58.00
2019-02-08T19:53:15.827Z,57.80
2019-02-08T19:55:45.127Z,57.40
2019-02-08T19:58:14.422Z,57.10
2019-02-08T20:00:44.756Z,57.10
2019-02-08T20:03:14.328Z,57.10
2019-02-08T20:05:43.930Z,57.00
2019-02-08T20:08:14.084Z,57.10
2019-02-08T20:10:45.695Z,56.80
2019-02-08T20:13:14.970Z,57.10
2019-02-08T20:15:44.771Z,56.80
2019-02-08T20:18:14.509Z,57.20
2019-02-08T20:20:43.786Z,57.20
2019-02-08T20:23:13.072Z,57.20
2019-02-08T20:25:42.430Z,57.20
2019-02-08T20:28:11.731Z,57.20
2019-02-08T20:30:41.003Z,57.10
2019-02-08T20:33:10.630Z,57.60
2019-02-08T20:35:39.906Z,55.90
2019-02-08T20:38:09.270Z,55.60
2019-02-08T20:40:44.270Z,55.60
2019-02-08T20:43:13.558Z,55.50
2019-02-08T20:45:42.903Z,55.00
2019-02-08T20:48:14.941Z,54.70
2019-02-08T20:50:44.283Z,54.50
2019-02-08T20:53:13.646Z,54.70
2019-02-08T20:55:43.257Z,54.30
2019-02-08T20:58:13.175Z,54.20
2019-02-08T21:00:45.460Z,54.50
2019-02-08T21:03:15.239Z,54.90
2019-02-08T21:05:45.067Z,54.50
2019-02-08T21:08:14.710Z,54.60
2019-02-08T21:10:44.134Z,54.70
2019-02-08T21:13:14.198Z,55.50
2019-02-08T21:15:43.802Z,55.40
2019-02-08T21:18:13.231Z,54.90
2019-02-08T21:20:43.219Z,54.90
2019-02-08T21:23:12.497Z,54.70
2019-02-08T21:25:42.523Z,54.70
2019-02-08T21:28:11.870Z,55.10
2019-02-08T21:30:41.226Z,55.10
2019-02-08T21:33:11.241Z,55.50
2019-02-08T21:35:40.595Z,55.90
2019-02-08T21:38:10.135Z,55.40
2019-02-08T21:40:39.530Z,55.30
2019-02-08T21:43:08.962Z,55.40
2019-02-08T21:45:43.091Z,55.70
2019-02-08T21:48:13.219Z,55.50
2019-02-08T21:50:42.627Z,55.10
2019-02-08T21:53:11.927Z,55.70
2019-02-08T21:55:41.269Z,55.40
2019-02-08T21:58:10.620Z,55.40
2019-02-08T22:00:41.932Z,55.40
2019-02-08T22:03:11.650Z,55.40
2019-02-08T22:05:59.079Z,55.30
2019-02-08T22:08:28.369Z,55.20
2019-02-08T22:10:57.643Z,55.50
2019-02-08T22:13:26.935Z,55.30
2019-02-08T22:15:56.215Z,55.30
2019-02-08T22:18:25.503Z,54.90
2019-02-08T22:20:54.790Z,54.80
2019-02-08T22:23:24.062Z,54.70
2019-02-08T22:25:53.354Z,54.20
2019-02-08T22:28:23.016Z,54.00
2019-02-08T22:30:52.306Z,53.30
2019-02-08T22:33:21.630Z,53.60
2019-02-08T22:35:51.222Z,54.80
2019-02-08T22:38:20.494Z,54.90
2019-02-08T22:40:50.035Z,49.40
2019-02-08T22:43:19.353Z,50.00
2019-02-08T22:45:48.627Z,49.40
2019-02-08T22:48:17.895Z,51.10
2019-02-08T22:50:47.431Z,49.80
2019-02-08T22:53:17.042Z,50.10
2019-02-08T22:55:46.323Z,51.60
2019-02-08T22:58:15.619Z,51.90
2019-02-08T23:00:54.419Z,52.40
2019-02-08T23:03:23.785Z,52.40
2019-02-08T23:05:53.297Z,52.30
2019-02-08T23:08:22.699Z,52.70
2019-02-08T23:10:52.225Z,52.50
2019-02-08T23:13:21.734Z,52.50
2019-02-08T23:15:51.114Z,52.10
2019-02-08T23:18:20.386Z,52.00
2019-02-08T23:20:49.744Z,51.90
2019-02-08T23:23:19.014Z,51.70
2019-02-08T23:25:48.310Z,51.90
2019-02-08T23:28:17.611Z,51.60
2019-02-08T23:30:47.203Z,51.40
2019-02-08T23:33:16.562Z,50.90
2019-02-08T23:35:45.841Z,50.80
2019-02-08T23:38:15.117Z,50.80
2019-02-08T23:40:44.475Z,50.70
2019-02-08T23:43:13.743Z,51.20
2019-02-08T23:45:43.926Z,51.60
2019-02-08T23:48:13.198Z,51.30
2019-02-08T23:50:42.739Z,51.00
2019-02-08T23:53:12.063Z,50.50
2019-02-08T23:55:41.339Z,50.40
2019-02-08T23:58:10.946Z,49.40
